Main page
METAR-TAF:

METAR-TAF

Airports :

Rhodes International Airport

Rhodes, Greece

latitude: 36-24N, longitude: 028-05E, elevation: 4 m

Current weather observation

The report was made 39 minutes ago, at 08:20 UTC
Wind 11 kt from the West/Southwest
Temperature 27°C
Humidity 70%
Pressure 1015 hPa
Visibility 10 km or more
no clouds below 1500 m and no cumulonimbus

METAR: LGRP 230820Z 25011KT CAVOK 27/21 Q1015 NOSIG

Time: 11:59 (08:59 UTC)

Forecast

The report was made 3 hours and 59 minutes ago, at 05:00 UTC
Forecast valid from 23 at 06 UTC to 24 at 06 UTC
Wind 15 kt from the West/Southwest
Visibility 10 km or more
Few clouds at a height of 1800 ft

TAF: LGRP 230500Z 2306/2406 25015KT 9999 FEW018

Weather observations and forecasts of more than 4000 airports (METAR and TAF reports).

The available stations are represented by yellow and red dots on the map.

Hover mouse over dot to see the name of the station.

Then click to see weather observations and forecasts.

To change the map : click on the green buttons with a black cross to zoom in, on the green button with a dash to zoom out, or on the green arrows for adjacent maps.


METAR-TAF: